sensor_id;sensor_type;location;lat;lon;timestamp;P1;durP1;ratioP1;P2;durP2;ratioP2
66856;SDS011;53766;50.280;19.160;2023-07-08T00:00:26;2.22;;;1.50;;
66856;SDS011;53766;50.280;19.160;2023-07-08T00:03:14;2.60;;;1.60;;
66856;SDS011;53766;50.280;19.160;2023-07-08T00:05:42;2.03;;;1.50;;
66856;SDS011;53766;50.280;19.160;2023-07-08T00:08:17;2.30;;;1.40;;
66856;SDS011;53766;50.280;19.160;2023-07-08T00:10:46;1.90;;;1.48;;
66856;SDS011;53766;50.280;19.160;2023-07-08T00:13:14;2.10;;;1.40;;
66856;SDS011;53766;50.280;19.160;2023-07-08T00:15:42;3.00;;;1.40;;
66856;SDS011;53766;50.280;19.160;2023-07-08T00:18:11;2.10;;;1.60;;
66856;SDS011;53766;50.280;19.160;2023-07-08T00:20:46;3.20;;;1.70;;
66856;SDS011;53766;50.280;19.160;2023-07-08T00:23:16;2.03;;;1.60;;
66856;SDS011;53766;50.280;19.160;2023-07-08T00:25:48;2.15;;;1.50;;
66856;SDS011;53766;50.280;19.160;2023-07-08T00:28:18;2.70;;;1.80;;
66856;SDS011;53766;50.280;19.160;2023-07-08T00:30:47;2.30;;;1.60;;
66856;SDS011;53766;50.280;19.160;2023-07-08T00:33:15;2.28;;;1.50;;
66856;SDS011;53766;50.280;19.160;2023-07-08T00:35:44;2.50;;;1.63;;
66856;SDS011;53766;50.280;19.160;2023-07-08T00:38:17;2.20;;;1.60;;
66856;SDS011;53766;50.280;19.160;2023-07-08T00:43:49;2.40;;;1.60;;
66856;SDS011;53766;50.280;19.160;2023-07-08T00:52:19;2.38;;;1.67;;
66856;SDS011;53766;50.280;19.160;2023-07-08T00:54:51;2.88;;;1.83;;
66856;SDS011;53766;50.280;19.160;2023-07-08T00:57:20;2.33;;;1.60;;
66856;SDS011;53766;50.280;19.160;2023-07-08T00:59:54;2.70;;;1.63;;
66856;SDS011;53766;50.280;19.160;2023-07-08T01:02:26;2.65;;;1.65;;
66856;SDS011;53766;50.280;19.160;2023-07-08T01:04:58;2.80;;;1.75;;
66856;SDS011;53766;50.280;19.160;2023-07-08T01:07:32;2.38;;;1.50;;
66856;SDS011;53766;50.280;19.160;2023-07-08T01:10:03;3.03;;;1.80;;
66856;SDS011;53766;50.280;19.160;2023-07-08T01:12:37;2.03;;;1.60;;
66856;SDS011;53766;50.280;19.160;2023-07-08T01:15:09;2.33;;;1.60;;
66856;SDS011;53766;50.280;19.160;2023-07-08T01:17:38;2.15;;;1.63;;
66856;SDS011;53766;50.280;19.160;2023-07-08T01:20:07;2.88;;;1.70;;
66856;SDS011;53766;50.280;19.160;2023-07-08T01:22:41;2.28;;;1.60;;
66856;SDS011;53766;50.280;19.160;2023-07-08T01:25:09;3.10;;;1.80;;
66856;SDS011;53766;50.280;19.160;2023-07-08T01:27:40;2.65;;;1.80;;
66856;SDS011;53766;50.280;19.160;2023-07-08T01:30:09;2.03;;;1.60;;
66856;SDS011;53766;50.280;19.160;2023-07-08T01:32:39;2.42;;;1.67;;
66856;SDS011;53766;50.280;19.160;2023-07-08T01:37:44;2.72;;;1.60;;
66856;SDS011;53766;50.280;19.160;2023-07-08T01:42:46;2.25;;;1.63;;
66856;SDS011;53766;50.280;19.160;2023-07-08T01:45:15;2.60;;;1.60;;
66856;SDS011;53766;50.280;19.160;2023-07-08T01:47:46;2.15;;;1.73;;
66856;SDS011;53766;50.280;19.160;2023-07-08T01:50:18;3.07;;;1.80;;
66856;SDS011;53766;50.280;19.160;2023-07-08T01:52:48;2.67;;;1.80;;
66856;SDS011;53766;50.280;19.160;2023-07-08T01:55:20;2.67;;;1.80;;
66856;SDS011;53766;50.280;19.160;2023-07-08T01:57:52;2.92;;;1.60;;
66856;SDS011;53766;50.280;19.160;2023-07-08T02:00:21;2.75;;;1.60;;
66856;SDS011;53766;50.280;19.160;2023-07-08T02:02:50;2.13;;;1.50;;
66856;SDS011;53766;50.280;19.160;2023-07-08T02:05:18;1.95;;;1.60;;
66856;SDS011;53766;50.280;19.160;2023-07-08T02:07:46;2.22;;;1.63;;
66856;SDS011;53766;50.280;19.160;2023-07-08T02:10:14;2.25;;;1.70;;
66856;SDS011;53766;50.280;19.160;2023-07-08T02:12:41;3.67;;;1.80;;
66856;SDS011;53766;50.280;19.160;2023-07-08T02:15:09;2.55;;;1.60;;
66856;SDS011;53766;50.280;19.160;2023-07-08T02:17:37;2.70;;;1.60;;
66856;SDS011;53766;50.280;19.160;2023-07-08T02:20:05;2.40;;;1.60;;
66856;SDS011;53766;50.280;19.160;2023-07-08T02:22:33;2.30;;;1.73;;
66856;SDS011;53766;50.280;19.160;2023-07-08T02:25:00;2.53;;;1.80;;
66856;SDS011;53766;50.280;19.160;2023-07-08T02:27:28;2.78;;;1.80;;
66856;SDS011;53766;50.280;19.160;2023-07-08T02:29:55;2.22;;;1.60;;
66856;SDS011;53766;50.280;19.160;2023-07-08T02:32:22;2.28;;;1.70;;
66856;SDS011;53766;50.280;19.160;2023-07-08T02:34:50;3.15;;;2.03;;
66856;SDS011;53766;50.280;19.160;2023-07-08T02:37:19;3.22;;;2.10;;
66856;SDS011;53766;50.280;19.160;2023-07-08T02:39:46;2.22;;;1.60;;
66856;SDS011;53766;50.280;19.160;2023-07-08T02:42:14;3.42;;;1.80;;
66856;SDS011;53766;50.280;19.160;2023-07-08T02:44:42;2.53;;;1.85;;
66856;SDS011;53766;50.280;19.160;2023-07-08T02:47:09;4.03;;;1.90;;
66856;SDS011;53766;50.280;19.160;2023-07-08T02:49:37;2.42;;;1.83;;
66856;SDS011;53766;50.280;19.160;2023-07-08T02:52:04;2.97;;;1.92;;
66856;SDS011;53766;50.280;19.160;2023-07-08T02:54:32;3.15;;;2.00;;
66856;SDS011;53766;50.280;19.160;2023-07-08T02:56:59;2.83;;;1.95;;
66856;SDS011;53766;50.280;19.160;2023-07-08T02:59:27;2.83;;;1.85;;
66856;SDS011;53766;50.280;19.160;2023-07-08T03:01:55;2.20;;;1.70;;
66856;SDS011;53766;50.280;19.160;2023-07-08T03:04:23;2.83;;;2.10;;
66856;SDS011;53766;50.280;19.160;2023-07-08T03:06:52;2.25;;;1.77;;
66856;SDS011;53766;50.280;19.160;2023-07-08T03:09:20;2.72;;;2.00;;
66856;SDS011;53766;50.280;19.160;2023-07-08T03:11:48;3.30;;;1.77;;
66856;SDS011;53766;50.280;19.160;2023-07-08T03:14:15;2.95;;;1.80;;
66856;SDS011;53766;50.280;19.160;2023-07-08T03:16:42;1.92;;;1.70;;
66856;SDS011;53766;50.280;19.160;2023-07-08T03:19:11;2.22;;;1.75;;
66856;SDS011;53766;50.280;19.160;2023-07-08T03:21:42;2.95;;;2.00;;
66856;SDS011;53766;50.280;19.160;2023-07-08T03:24:10;3.47;;;2.20;;
66856;SDS011;53766;50.280;19.160;2023-07-08T03:26:38;2.80;;;1.90;;
66856;SDS011;53766;50.280;19.160;2023-07-08T03:29:08;3.90;;;2.13;;
66856;SDS011;53766;50.280;19.160;2023-07-08T03:31:46;2.47;;;1.80;;
66856;SDS011;53766;50.280;19.160;2023-07-08T03:34:15;2.00;;;1.60;;
66856;SDS011;53766;50.280;19.160;2023-07-08T03:36:45;4.50;;;2.00;;
66856;SDS011;53766;50.280;19.160;2023-07-08T03:39:18;3.58;;;2.10;;
66856;SDS011;53766;50.280;19.160;2023-07-08T03:41:47;3.00;;;1.92;;
66856;SDS011;53766;50.280;19.160;2023-07-08T03:44:16;2.80;;;1.90;;
66856;SDS011;53766;50.280;19.160;2023-07-08T03:46:44;2.95;;;1.75;;
66856;SDS011;53766;50.280;19.160;2023-07-08T03:49:13;2.08;;;1.67;;
66856;SDS011;53766;50.280;19.160;2023-07-08T03:51:40;2.20;;;1.42;;
66856;SDS011;53766;50.280;19.160;2023-07-08T03:54:08;3.17;;;2.00;;
66856;SDS011;53766;50.280;19.160;2023-07-08T03:56:39;2.28;;;1.80;;
66856;SDS011;53766;50.280;19.160;2023-07-08T03:59:07;2.30;;;1.70;;
66856;SDS011;53766;50.280;19.160;2023-07-08T04:01:35;3.17;;;1.90;;
66856;SDS011;53766;50.280;19.160;2023-07-08T04:04:03;2.53;;;1.80;;
66856;SDS011;53766;50.280;19.160;2023-07-08T04:06:30;2.70;;;2.00;;
66856;SDS011;53766;50.280;19.160;2023-07-08T04:08:58;2.60;;;1.70;;
66856;SDS011;53766;50.280;19.160;2023-07-08T04:11:26;2.60;;;1.88;;
66856;SDS011;53766;50.280;19.160;2023-07-08T04:13:54;2.90;;;2.00;;
66856;SDS011;53766;50.280;19.160;2023-07-08T04:16:35;2.28;;;1.75;;
66856;SDS011;53766;50.280;19.160;2023-07-08T04:19:13;2.45;;;1.90;;
66856;SDS011;53766;50.280;19.160;2023-07-08T04:21:44;1.98;;;1.70;;
66856;SDS011;53766;50.280;19.160;2023-07-08T04:24:13;3.13;;;1.83;;
66856;SDS011;53766;50.280;19.160;2023-07-08T04:26:42;2.42;;;1.83;;
66856;SDS011;53766;50.280;19.160;2023-07-08T04:29:14;2.58;;;1.77;;
66856;SDS011;53766;50.280;19.160;2023-07-08T04:31:43;2.17;;;1.67;;
66856;SDS011;53766;50.280;19.160;2023-07-08T04:34:12;2.10;;;1.73;;
66856;SDS011;53766;50.280;19.160;2023-07-08T04:36:40;1.98;;;1.70;;
66856;SDS011;53766;50.280;19.160;2023-07-08T04:39:08;2.70;;;1.80;;
66856;SDS011;53766;50.280;19.160;2023-07-08T04:41:37;2.45;;;1.77;;
66856;SDS011;53766;50.280;19.160;2023-07-08T04:44:08;3.22;;;1.90;;
66856;SDS011;53766;50.280;19.160;2023-07-08T04:46:36;2.55;;;1.90;;
66856;SDS011;53766;50.280;19.160;2023-07-08T04:49:08;4.05;;;2.00;;
66856;SDS011;53766;50.280;19.160;2023-07-08T04:51:40;3.53;;;2.08;;
66856;SDS011;53766;50.280;19.160;2023-07-08T04:54:08;2.70;;;1.83;;
66856;SDS011;53766;50.280;19.160;2023-07-08T04:56:38;2.67;;;1.90;;
66856;SDS011;53766;50.280;19.160;2023-07-08T04:59:08;2.58;;;1.83;;
66856;SDS011;53766;50.280;19.160;2023-07-08T05:01:36;2.70;;;1.92;;
66856;SDS011;53766;50.280;19.160;2023-07-08T05:04:05;2.42;;;1.80;;
66856;SDS011;53766;50.280;19.160;2023-07-08T05:06:33;3.45;;;1.95;;
66856;SDS011;53766;50.280;19.160;2023-07-08T05:09:02;2.63;;;1.98;;
66856;SDS011;53766;50.280;19.160;2023-07-08T05:11:30;3.35;;;2.00;;
66856;SDS011;53766;50.280;19.160;2023-07-08T05:13:58;3.67;;;2.28;;
66856;SDS011;53766;50.280;19.160;2023-07-08T05:16:26;3.83;;;2.17;;
66856;SDS011;53766;50.280;19.160;2023-07-08T05:18:54;2.38;;;1.90;;
66856;SDS011;53766;50.280;19.160;2023-07-08T05:21:22;2.63;;;1.85;;
66856;SDS011;53766;50.280;19.160;2023-07-08T05:23:49;3.45;;;1.92;;
66856;SDS011;53766;50.280;19.160;2023-07-08T05:26:17;2.35;;;1.88;;
66856;SDS011;53766;50.280;19.160;2023-07-08T05:28:45;2.80;;;2.03;;
66856;SDS011;53766;50.280;19.160;2023-07-08T05:31:12;3.03;;;2.28;;
66856;SDS011;53766;50.280;19.160;2023-07-08T05:33:40;3.47;;;2.10;;
66856;SDS011;53766;50.280;19.160;2023-07-08T05:36:07;3.05;;;2.03;;
66856;SDS011;53766;50.280;19.160;2023-07-08T05:38:35;2.72;;;1.92;;
66856;SDS011;53766;50.280;19.160;2023-07-08T05:41:02;3.10;;;2.03;;
66856;SDS011;53766;50.280;19.160;2023-07-08T05:43:30;3.60;;;1.90;;
66856;SDS011;53766;50.280;19.160;2023-07-08T05:46:00;3.70;;;2.20;;
66856;SDS011;53766;50.280;19.160;2023-07-08T05:48:39;2.83;;;2.05;;
66856;SDS011;53766;50.280;19.160;2023-07-08T05:51:06;2.45;;;1.90;;
66856;SDS011;53766;50.280;19.160;2023-07-08T05:53:34;2.70;;;1.90;;
66856;SDS011;53766;50.280;19.160;2023-07-08T05:56:02;3.35;;;1.98;;
66856;SDS011;53766;50.280;19.160;2023-07-08T05:58:30;2.35;;;1.92;;
66856;SDS011;53766;50.280;19.160;2023-07-08T06:00:57;3.70;;;2.00;;
66856;SDS011;53766;50.280;19.160;2023-07-08T06:03:26;2.70;;;1.90;;
66856;SDS011;53766;50.280;19.160;2023-07-08T06:05:53;2.10;;;1.85;;
66856;SDS011;53766;50.280;19.160;2023-07-08T06:08:21;2.95;;;2.10;;
66856;SDS011;53766;50.280;19.160;2023-07-08T06:10:49;2.83;;;2.10;;
66856;SDS011;53766;50.280;19.160;2023-07-08T06:13:17;3.08;;;2.13;;
66856;SDS011;53766;50.280;19.160;2023-07-08T06:15:44;2.22;;;1.65;;
66856;SDS011;53766;50.280;19.160;2023-07-08T06:18:12;3.08;;;2.10;;
66856;SDS011;53766;50.280;19.160;2023-07-08T06:20:39;3.20;;;1.98;;
66856;SDS011;53766;50.280;19.160;2023-07-08T06:23:07;2.80;;;2.00;;
66856;SDS011;53766;50.280;19.160;2023-07-08T06:25:34;3.15;;;2.10;;
66856;SDS011;53766;50.280;19.160;2023-07-08T06:28:02;2.85;;;1.95;;
66856;SDS011;53766;50.280;19.160;2023-07-08T06:30:29;2.75;;;2.00;;
66856;SDS011;53766;50.280;19.160;2023-07-08T06:32:57;4.07;;;2.13;;
66856;SDS011;53766;50.280;19.160;2023-07-08T06:35:27;2.83;;;2.25;;
66856;SDS011;53766;50.280;19.160;2023-07-08T06:37:55;2.88;;;2.00;;
66856;SDS011;53766;50.280;19.160;2023-07-08T06:40:22;3.33;;;2.17;;
66856;SDS011;53766;50.280;19.160;2023-07-08T06:42:50;3.03;;;1.85;;
66856;SDS011;53766;50.280;19.160;2023-07-08T06:45:17;2.60;;;2.00;;
66856;SDS011;53766;50.280;19.160;2023-07-08T06:47:45;2.65;;;2.00;;
66856;SDS011;53766;50.280;19.160;2023-07-08T06:50:13;2.50;;;1.90;;
66856;SDS011;53766;50.280;19.160;2023-07-08T06:52:41;2.58;;;2.00;;
66856;SDS011;53766;50.280;19.160;2023-07-08T06:55:09;2.17;;;1.80;;
66856;SDS011;53766;50.280;19.160;2023-07-08T06:57:37;3.28;;;2.20;;
66856;SDS011;53766;50.280;19.160;2023-07-08T07:00:09;2.90;;;2.00;;
66856;SDS011;53766;50.280;19.160;2023-07-08T07:02:38;2.95;;;2.05;;
66856;SDS011;53766;50.280;19.160;2023-07-08T07:05:06;3.63;;;2.08;;
66856;SDS011;53766;50.280;19.160;2023-07-08T07:07:34;2.97;;;2.10;;
66856;SDS011;53766;50.280;19.160;2023-07-08T07:10:02;3.00;;;2.13;;
66856;SDS011;53766;50.280;19.160;2023-07-08T07:12:30;2.70;;;1.77;;
66856;SDS011;53766;50.280;19.160;2023-07-08T07:14:57;2.20;;;1.63;;
66856;SDS011;53766;50.280;19.160;2023-07-08T07:17:26;3.17;;;2.13;;
66856;SDS011;53766;50.280;19.160;2023-07-08T07:19:54;2.35;;;1.80;;
66856;SDS011;53766;50.280;19.160;2023-07-08T07:22:22;2.75;;;2.00;;
66856;SDS011;53766;50.280;19.160;2023-07-08T07:24:50;3.20;;;2.20;;
66856;SDS011;53766;50.280;19.160;2023-07-08T07:27:17;3.65;;;2.22;;
66856;SDS011;53766;50.280;19.160;2023-07-08T07:29:46;3.22;;;2.33;;
66856;SDS011;53766;50.280;19.160;2023-07-08T07:32:16;3.13;;;2.20;;
66856;SDS011;53766;50.280;19.160;2023-07-08T07:34:47;3.38;;;2.35;;
66856;SDS011;53766;50.280;19.160;2023-07-08T07:37:16;3.20;;;2.00;;
66856;SDS011;53766;50.280;19.160;2023-07-08T07:39:45;3.42;;;2.10;;
66856;SDS011;53766;50.280;19.160;2023-07-08T07:42:13;2.83;;;2.10;;
66856;SDS011;53766;50.280;19.160;2023-07-08T07:44:43;2.88;;;2.00;;
66856;SDS011;53766;50.280;19.160;2023-07-08T07:47:11;2.88;;;2.08;;
66856;SDS011;53766;50.280;19.160;2023-07-08T07:49:39;2.42;;;2.03;;
66856;SDS011;53766;50.280;19.160;2023-07-08T07:52:07;3.40;;;2.03;;
66856;SDS011;53766;50.280;19.160;2023-07-08T07:54:38;2.72;;;2.13;;
66856;SDS011;53766;50.280;19.160;2023-07-08T07:57:06;3.40;;;2.28;;
66856;SDS011;53766;50.280;19.160;2023-07-08T07:59:33;3.00;;;2.10;;
66856;SDS011;53766;50.280;19.160;2023-07-08T08:02:01;3.25;;;2.00;;
66856;SDS011;53766;50.280;19.160;2023-07-08T08:04:29;4.28;;;2.50;;
66856;SDS011;53766;50.280;19.160;2023-07-08T08:06:56;2.63;;;1.98;;
66856;SDS011;53766;50.280;19.160;2023-07-08T08:09:24;3.17;;;2.28;;
66856;SDS011;53766;50.280;19.160;2023-07-08T08:11:52;2.75;;;2.00;;
66856;SDS011;53766;50.280;19.160;2023-07-08T08:14:19;3.08;;;2.15;;
66856;SDS011;53766;50.280;19.160;2023-07-08T08:16:47;2.60;;;2.08;;
66856;SDS011;53766;50.280;19.160;2023-07-08T08:19:14;3.70;;;2.33;;
66856;SDS011;53766;50.280;19.160;2023-07-08T08:21:42;2.90;;;2.00;;
66856;SDS011;53766;50.280;19.160;2023-07-08T08:24:09;2.58;;;2.10;;
66856;SDS011;53766;50.280;19.160;2023-07-08T08:26:37;2.70;;;2.13;;
66856;SDS011;53766;50.280;19.160;2023-07-08T08:29:04;2.83;;;2.05;;
66856;SDS011;53766;50.280;19.160;2023-07-08T08:31:32;2.97;;;2.20;;
66856;SDS011;53766;50.280;19.160;2023-07-08T08:34:00;2.45;;;2.00;;
66856;SDS011;53766;50.280;19.160;2023-07-08T08:36:29;3.00;;;2.10;;
66856;SDS011;53766;50.280;19.160;2023-07-08T08:38:56;3.83;;;2.20;;
66856;SDS011;53766;50.280;19.160;2023-07-08T08:41:34;3.65;;;2.20;;
66856;SDS011;53766;50.280;19.160;2023-07-08T08:44:04;4.00;;;2.13;;
66856;SDS011;53766;50.280;19.160;2023-07-08T08:49:27;2.55;;;2.03;;
66856;SDS011;53766;50.280;19.160;2023-07-08T08:51:59;2.47;;;1.92;;
66856;SDS011;53766;50.280;19.160;2023-07-08T08:54:29;2.95;;;2.10;;
66856;SDS011;53766;50.280;19.160;2023-07-08T08:59:52;2.88;;;1.90;;
66856;SDS011;53766;50.280;19.160;2023-07-08T09:02:25;2.95;;;2.17;;
66856;SDS011;53766;50.280;19.160;2023-07-08T09:05:20;2.70;;;1.88;;
66856;SDS011;53766;50.280;19.160;2023-07-08T09:07:59;2.58;;;1.90;;
66856;SDS011;53766;50.280;19.160;2023-07-08T09:13:31;2.75;;;1.80;;
66856;SDS011;53766;50.280;19.160;2023-07-08T09:19:13;2.63;;;1.90;;
66856;SDS011;53766;50.280;19.160;2023-07-08T09:24:15;1.95;;;1.70;;
66856;SDS011;53766;50.280;19.160;2023-07-08T09:27:02;2.40;;;1.98;;
66856;SDS011;53766;50.280;19.160;2023-07-08T09:29:31;2.33;;;1.98;;
66856;SDS011;53766;50.280;19.160;2023-07-08T09:32:00;2.30;;;1.80;;
66856;SDS011;53766;50.280;19.160;2023-07-08T09:35:02;2.55;;;1.70;;
66856;SDS011;53766;50.280;19.160;2023-07-08T09:37:32;2.38;;;1.90;;
66856;SDS011;53766;50.280;19.160;2023-07-08T09:40:15;2.50;;;1.90;;
66856;SDS011;53766;50.280;19.160;2023-07-08T09:42:46;2.92;;;2.10;;
66856;SDS011;53766;50.280;19.160;2023-07-08T09:45:19;3.03;;;2.10;;
66856;SDS011;53766;50.280;19.160;2023-07-08T09:47:52;3.03;;;2.00;;
66856;SDS011;53766;50.280;19.160;2023-07-08T09:50:23;2.33;;;1.90;;
66856;SDS011;53766;50.280;19.160;2023-07-08T09:52:56;2.63;;;1.90;;
66856;SDS011;53766;50.280;19.160;2023-07-08T09:55:26;2.72;;;1.80;;
66856;SDS011;53766;50.280;19.160;2023-07-08T09:57:56;3.00;;;2.13;;
66856;SDS011;53766;50.280;19.160;2023-07-08T10:00:33;3.10;;;2.00;;
66856;SDS011;53766;50.280;19.160;2023-07-08T10:03:11;2.13;;;1.63;;
66856;SDS011;53766;50.280;19.160;2023-07-08T10:05:46;2.55;;;1.80;;
66856;SDS011;53766;50.280;19.160;2023-07-08T10:08:21;2.88;;;1.80;;
66856;SDS011;53766;50.280;19.160;2023-07-08T10:11:14;2.30;;;1.70;;
66856;SDS011;53766;50.280;19.160;2023-07-08T10:13:38;2.45;;;1.90;;
66856;SDS011;53766;50.280;19.160;2023-07-08T10:16:29;2.30;;;1.90;;
66856;SDS011;53766;50.280;19.160;2023-07-08T10:18:58;2.08;;;1.70;;
66856;SDS011;53766;50.280;19.160;2023-07-08T10:24:21;2.20;;;1.77;;
66856;SDS011;53766;50.280;19.160;2023-07-08T10:27:02;2.75;;;1.85;;
66856;SDS011;53766;50.280;19.160;2023-07-08T10:35:25;2.58;;;1.80;;
66856;SDS011;53766;50.280;19.160;2023-07-08T10:40:38;1.80;;;1.60;;
66856;SDS011;53766;50.280;19.160;2023-07-08T10:46:05;2.13;;;1.75;;
66856;SDS011;53766;50.280;19.160;2023-07-08T10:49:28;2.17;;;1.70;;
66856;SDS011;53766;50.280;19.160;2023-07-08T11:06:07;2.22;;;1.80;;
66856;SDS011;53766;50.280;19.160;2023-07-08T11:14:49;3.05;;;2.10;;
66856;SDS011;53766;50.280;19.160;2023-07-08T11:17:16;2.33;;;1.70;;
66856;SDS011;53766;50.280;19.160;2023-07-08T11:19:58;2.33;;;1.73;;
66856;SDS011;53766;50.280;19.160;2023-07-08T11:22:49;2.22;;;1.88;;
66856;SDS011;53766;50.280;19.160;2023-07-08T11:25:21;2.58;;;1.98;;
66856;SDS011;53766;50.280;19.160;2023-07-08T11:27:55;3.28;;;1.73;;
66856;SDS011;53766;50.280;19.160;2023-07-08T11:30:26;2.22;;;1.80;;
66856;SDS011;53766;50.280;19.160;2023-07-08T11:33:01;2.50;;;1.90;;
66856;SDS011;53766;50.280;19.160;2023-07-08T11:35:39;1.90;;;1.50;;
66856;SDS011;53766;50.280;19.160;2023-07-08T11:38:12;2.22;;;1.70;;
66856;SDS011;53766;50.280;19.160;2023-07-08T11:40:50;2.30;;;1.73;;
66856;SDS011;53766;50.280;19.160;2023-07-08T11:46:27;2.22;;;1.83;;
66856;SDS011;53766;50.280;19.160;2023-07-08T11:49:00;2.30;;;1.90;;
66856;SDS011;53766;50.280;19.160;2023-07-08T11:51:31;2.22;;;1.70;;
66856;SDS011;53766;50.280;19.160;2023-07-08T11:56:57;1.98;;;1.60;;
66856;SDS011;53766;50.280;19.160;2023-07-08T11:59:32;2.20;;;1.70;;
66856;SDS011;53766;50.280;19.160;2023-07-08T12:02:04;2.20;;;1.50;;
66856;SDS011;53766;50.280;19.160;2023-07-08T12:04:56;2.15;;;1.65;;
66856;SDS011;53766;50.280;19.160;2023-07-08T12:07:31;2.10;;;1.80;;
66856;SDS011;53766;50.280;19.160;2023-07-08T12:10:17;2.10;;;1.60;;
66856;SDS011;53766;50.280;19.160;2023-07-08T12:12:53;2.30;;;1.73;;
66856;SDS011;53766;50.280;19.160;2023-07-08T12:15:22;2.13;;;1.83;;
66856;SDS011;53766;50.280;19.160;2023-07-08T12:20:32;2.42;;;1.70;;
66856;SDS011;53766;50.280;19.160;2023-07-08T12:23:01;2.78;;;1.90;;
66856;SDS011;53766;50.280;19.160;2023-07-08T12:25:31;2.00;;;1.63;;
66856;SDS011;53766;50.280;19.160;2023-07-08T12:28:02;2.72;;;1.83;;
66856;SDS011;53766;50.280;19.160;2023-07-08T12:30:31;2.20;;;1.63;;
66856;SDS011;53766;50.280;19.160;2023-07-08T12:33:00;1.90;;;1.52;;
66856;SDS011;53766;50.280;19.160;2023-07-08T12:35:29;2.58;;;1.77;;
66856;SDS011;53766;50.280;19.160;2023-07-08T12:38:02;2.00;;;1.58;;
66856;SDS011;53766;50.280;19.160;2023-07-08T12:40:45;2.20;;;1.75;;
66856;SDS011;53766;50.280;19.160;2023-07-08T12:43:13;2.17;;;1.60;;
66856;SDS011;53766;50.280;19.160;2023-07-08T12:45:43;2.05;;;1.60;;
66856;SDS011;53766;50.280;19.160;2023-07-08T12:48:11;2.65;;;1.85;;
66856;SDS011;53766;50.280;19.160;2023-07-08T12:50:39;1.92;;;1.55;;
66856;SDS011;53766;50.280;19.160;2023-07-08T12:53:06;1.95;;;1.50;;
66856;SDS011;53766;50.280;19.160;2023-07-08T12:55:37;1.98;;;1.60;;
66856;SDS011;53766;50.280;19.160;2023-07-08T12:58:09;2.33;;;1.60;;
66856;SDS011;53766;50.280;19.160;2023-07-08T13:00:45;2.80;;;1.77;;
66856;SDS011;53766;50.280;19.160;2023-07-08T13:03:14;2.10;;;1.50;;
66856;SDS011;53766;50.280;19.160;2023-07-08T13:05:45;2.03;;;1.58;;
66856;SDS011;53766;50.280;19.160;2023-07-08T13:08:15;2.03;;;1.70;;
66856;SDS011;53766;50.280;19.160;2023-07-08T13:10:45;2.00;;;1.77;;
66856;SDS011;53766;50.280;19.160;2023-07-08T13:13:25;2.00;;;1.52;;
66856;SDS011;53766;50.280;19.160;2023-07-08T13:15:56;1.88;;;1.55;;
66856;SDS011;53766;50.280;19.160;2023-07-08T13:18:35;2.13;;;1.70;;
66856;SDS011;53766;50.280;19.160;2023-07-08T13:21:07;2.40;;;1.80;;
66856;SDS011;53766;50.280;19.160;2023-07-08T13:23:39;2.30;;;1.48;;
66856;SDS011;53766;50.280;19.160;2023-07-08T13:26:17;2.58;;;1.65;;
66856;SDS011;53766;50.280;19.160;2023-07-08T13:28:47;3.00;;;1.80;;
66856;SDS011;53766;50.280;19.160;2023-07-08T13:31:20;2.13;;;1.50;;
66856;SDS011;53766;50.280;19.160;2023-07-08T13:33:53;2.00;;;1.50;;
66856;SDS011;53766;50.280;19.160;2023-07-08T13:36:22;1.50;;;1.30;;
66856;SDS011;53766;50.280;19.160;2023-07-08T13:38:51;2.20;;;1.60;;
66856;SDS011;53766;50.280;19.160;2023-07-08T13:41:20;2.47;;;1.77;;
66856;SDS011;53766;50.280;19.160;2023-07-08T13:43:49;1.80;;;1.58;;
66856;SDS011;53766;50.280;19.160;2023-07-08T13:46:34;1.95;;;1.60;;
66856;SDS011;53766;50.280;19.160;2023-07-08T13:51:49;2.33;;;1.80;;
66856;SDS011;53766;50.280;19.160;2023-07-08T13:54:22;2.00;;;1.60;;
66856;SDS011;53766;50.280;19.160;2023-07-08T13:57:00;2.00;;;1.63;;
66856;SDS011;53766;50.280;19.160;2023-07-08T13:59:29;2.45;;;1.80;;
66856;SDS011;53766;50.280;19.160;2023-07-08T14:01:57;2.80;;;1.70;;
66856;SDS011;53766;50.280;19.160;2023-07-08T14:04:34;2.35;;;1.60;;
66856;SDS011;53766;50.280;19.160;2023-07-08T14:07:03;1.92;;;1.50;;
66856;SDS011;53766;50.280;19.160;2023-07-08T14:09:31;2.22;;;1.60;;
66856;SDS011;53766;50.280;19.160;2023-07-08T14:11:59;2.08;;;1.42;;
66856;SDS011;53766;50.280;19.160;2023-07-08T14:14:26;1.92;;;1.60;;
66856;SDS011;53766;50.280;19.160;2023-07-08T14:16:54;2.00;;;1.40;;
66856;SDS011;53766;50.280;19.160;2023-07-08T14:19:23;1.95;;;1.67;;
66856;SDS011;53766;50.280;19.160;2023-07-08T14:21:57;2.25;;;1.50;;
66856;SDS011;53766;50.280;19.160;2023-07-08T14:24:26;1.55;;;1.30;;
66856;SDS011;53766;50.280;19.160;2023-07-08T14:26:55;2.13;;;1.40;;
66856;SDS011;53766;50.280;19.160;2023-07-08T14:29:23;1.85;;;1.60;;
66856;SDS011;53766;50.280;19.160;2023-07-08T14:31:50;2.08;;;1.58;;
66856;SDS011;53766;50.280;19.160;2023-07-08T14:34:25;2.03;;;1.50;;
66856;SDS011;53766;50.280;19.160;2023-07-08T14:36:54;1.52;;;1.23;;
66856;SDS011;53766;50.280;19.160;2023-07-08T14:39:21;2.70;;;1.52;;
66856;SDS011;53766;50.280;19.160;2023-07-08T14:41:49;1.52;;;1.33;;
66856;SDS011;53766;50.280;19.160;2023-07-08T14:44:23;1.73;;;1.50;;
66856;SDS011;53766;50.280;19.160;2023-07-08T14:46:54;2.03;;;1.70;;
66856;SDS011;53766;50.280;19.160;2023-07-08T14:49:22;1.90;;;1.67;;
66856;SDS011;53766;50.280;19.160;2023-07-08T14:51:50;1.60;;;1.35;;
66856;SDS011;53766;50.280;19.160;2023-07-08T14:54:18;1.60;;;1.35;;
66856;SDS011;53766;50.280;19.160;2023-07-08T14:56:47;1.75;;;1.45;;
66856;SDS011;53766;50.280;19.160;2023-07-08T14:59:21;2.05;;;1.45;;
66856;SDS011;53766;50.280;19.160;2023-07-08T15:01:50;2.03;;;1.50;;
66856;SDS011;53766;50.280;19.160;2023-07-08T15:04:20;2.00;;;1.50;;
66856;SDS011;53766;50.280;19.160;2023-07-08T15:06:47;1.92;;;1.48;;
66856;SDS011;53766;50.280;19.160;2023-07-08T15:09:17;2.10;;;1.63;;
66856;SDS011;53766;50.280;19.160;2023-07-08T15:11:45;2.05;;;1.40;;
66856;SDS011;53766;50.280;19.160;2023-07-08T15:16:51;1.70;;;1.40;;
66856;SDS011;53766;50.280;19.160;2023-07-08T15:19:19;1.80;;;1.60;;
66856;SDS011;53766;50.280;19.160;2023-07-08T15:21:48;1.58;;;1.35;;
66856;SDS011;53766;50.280;19.160;2023-07-08T15:24:16;2.00;;;1.60;;
66856;SDS011;53766;50.280;19.160;2023-07-08T15:26:45;1.85;;;1.40;;
66856;SDS011;53766;50.280;19.160;2023-07-08T15:29:16;1.60;;;1.50;;
66856;SDS011;53766;50.280;19.160;2023-07-08T15:31:47;1.98;;;1.50;;
66856;SDS011;53766;50.280;19.160;2023-07-08T15:34:16;2.80;;;1.70;;
66856;SDS011;53766;50.280;19.160;2023-07-08T15:36:45;1.98;;;1.50;;
66856;SDS011;53766;50.280;19.160;2023-07-08T15:39:13;1.90;;;1.40;;
66856;SDS011;53766;50.280;19.160;2023-07-08T15:41:42;1.50;;;1.30;;
66856;SDS011;53766;50.280;19.160;2023-07-08T15:44:11;2.45;;;1.50;;
66856;SDS011;53766;50.280;19.160;2023-07-08T15:46:49;1.42;;;1.30;;
66856;SDS011;53766;50.280;19.160;2023-07-08T15:49:19;1.80;;;1.38;;
66856;SDS011;53766;50.280;19.160;2023-07-08T15:51:50;1.67;;;1.30;;
66856;SDS011;53766;50.280;19.160;2023-07-08T15:54:17;1.40;;;1.23;;
66856;SDS011;53766;50.280;19.160;2023-07-08T15:56:50;2.03;;;1.50;;
66856;SDS011;53766;50.280;19.160;2023-07-08T15:59:20;2.38;;;1.50;;
66856;SDS011;53766;50.280;19.160;2023-07-08T16:01:52;1.75;;;1.20;;
66856;SDS011;53766;50.280;19.160;2023-07-08T16:04:26;1.83;;;1.23;;
66856;SDS011;53766;50.280;19.160;2023-07-08T16:06:58;1.80;;;1.35;;
66856;SDS011;53766;50.280;19.160;2023-07-08T16:09:26;1.80;;;1.50;;